sensor_id;sensor_type;location;lat;lon;timestamp;pressure;altitude;pressure_sealevel;temperature;humidity
31538;BME280;18147;51.952;6.146;2022-07-22T00:00:51;102075.03;;;15.44;100.00
31538;BME280;18147;51.952;6.146;2022-07-22T00:03:17;102073.28;;;15.43;100.00
31538;BME280;18147;51.952;6.146;2022-07-22T00:05:42;102078.84;;;15.40;100.00
31538;BME280;18147;51.952;6.146;2022-07-22T00:08:08;102082.13;;;15.45;100.00
31538;BME280;18147;51.952;6.146;2022-07-22T00:10:33;102081.34;;;15.43;100.00
31538;BME280;18147;51.952;6.146;2022-07-22T00:12:59;102084.16;;;15.41;100.00
31538;BME280;18147;51.952;6.146;2022-07-22T00:15:24;102086.53;;;15.46;100.00
31538;BME280;18147;51.952;6.146;2022-07-22T00:17:50;102083.19;;;15.42;100.00
31538;BME280;18147;51.952;6.146;2022-07-22T00:20:15;102084.63;;;15.48;100.00
31538;BME280;18147;51.952;6.146;2022-07-22T00:22:41;102075.78;;;15.46;100.00
31538;BME280;18147;51.952;6.146;2022-07-22T00:25:06;102072.50;;;15.41;100.00
31538;BME280;18147;51.952;6.146;2022-07-22T00:27:32;102082.91;;;15.47;100.00
31538;BME280;18147;51.952;6.146;2022-07-22T00:29:58;102080.84;;;15.50;100.00
31538;BME280;18147;51.952;6.146;2022-07-22T00:32:23;102078.53;;;15.59;100.00
31538;BME280;18147;51.952;6.146;2022-07-22T00:34:48;102084.88;;;15.58;100.00
31538;BME280;18147;51.952;6.146;2022-07-22T00:37:14;102077.00;;;15.54;100.00
31538;BME280;18147;51.952;6.146;2022-07-22T00:39:39;102084.09;;;15.55;100.00
31538;BME280;18147;51.952;6.146;2022-07-22T00:42:05;102076.81;;;15.58;100.00
31538;BME280;18147;51.952;6.146;2022-07-22T00:44:30;102078.72;;;15.55;100.00
31538;BME280;18147;51.952;6.146;2022-07-22T00:46:56;102074.22;;;15.56;100.00
31538;BME280;18147;51.952;6.146;2022-07-22T00:49:21;102078.94;;;15.52;100.00
31538;BME280;18147;51.952;6.146;2022-07-22T00:51:47;102070.22;;;15.49;100.00
31538;BME280;18147;51.952;6.146;2022-07-22T00:54:13;102072.72;;;15.52;100.00
31538;BME280;18147;51.952;6.146;2022-07-22T00:56:39;102073.00;;;15.47;100.00
31538;BME280;18147;51.952;6.146;2022-07-22T00:59:07;102075.28;;;15.53;100.00
31538;BME280;18147;51.952;6.146;2022-07-22T01:01:33;102075.00;;;15.58;100.00
31538;BME280;18147;51.952;6.146;2022-07-22T01:03:59;102076.16;;;15.54;100.00
31538;BME280;18147;51.952;6.146;2022-07-22T01:06:26;102077.59;;;15.45;100.00
31538;BME280;18147;51.952;6.146;2022-07-22T01:08:51;102068.19;;;15.52;100.00
31538;BME280;18147;51.952;6.146;2022-07-22T01:11:19;102057.84;;;15.46;100.00
31538;BME280;18147;51.952;6.146;2022-07-22T01:13:45;102062.44;;;15.44;100.00
31538;BME280;18147;51.952;6.146;2022-07-22T01:16:12;102059.63;;;15.46;100.00
31538;BME280;18147;51.952;6.146;2022-07-22T01:18:39;102063.78;;;15.51;100.00
31538;BME280;18147;51.952;6.146;2022-07-22T01:21:06;102057.22;;;15.55;100.00
31538;BME280;18147;51.952;6.146;2022-07-22T01:23:32;102064.03;;;15.61;100.00
31538;BME280;18147;51.952;6.146;2022-07-22T01:25:58;102063.69;;;15.53;100.00
31538;BME280;18147;51.952;6.146;2022-07-22T01:28:24;102064.03;;;15.61;100.00
31538;BME280;18147;51.952;6.146;2022-07-22T01:30:50;102069.13;;;15.66;100.00
31538;BME280;18147;51.952;6.146;2022-07-22T01:33:18;102069.13;;;15.66;100.00
31538;BME280;18147;51.952;6.146;2022-07-22T01:35:44;102072.09;;;15.75;100.00
31538;BME280;18147;51.952;6.146;2022-07-22T01:38:10;102070.22;;;15.63;100.00
31538;BME280;18147;51.952;6.146;2022-07-22T01:40:36;102074.03;;;15.59;100.00
31538;BME280;18147;51.952;6.146;2022-07-22T01:43:02;102066.44;;;15.66;100.00
31538;BME280;18147;51.952;6.146;2022-07-22T01:45:28;102073.28;;;15.57;100.00
31538;BME280;18147;51.952;6.146;2022-07-22T01:47:53;102074.63;;;15.64;100.00
31538;BME280;18147;51.952;6.146;2022-07-22T01:50:19;102073.66;;;15.65;100.00
31538;BME280;18147;51.952;6.146;2022-07-22T01:52:44;102075.75;;;15.60;100.00
31538;BME280;18147;51.952;6.146;2022-07-22T01:55:10;102071.16;;;15.76;100.00
31538;BME280;18147;51.952;6.146;2022-07-22T01:57:36;102062.91;;;15.65;100.00
31538;BME280;18147;51.952;6.146;2022-07-22T02:00:12;102064.03;;;15.75;100.00
31538;BME280;18147;51.952;6.146;2022-07-22T02:02:41;102058.75;;;15.74;100.00
31538;BME280;18147;51.952;6.146;2022-07-22T02:05:08;102058.00;;;15.72;100.00
31538;BME280;18147;51.952;6.146;2022-07-22T02:07:34;102067.78;;;15.73;100.00
31538;BME280;18147;51.952;6.146;2022-07-22T02:10:00;102056.59;;;15.66;100.00
31538;BME280;18147;51.952;6.146;2022-07-22T02:12:26;102055.81;;;15.64;100.00
31538;BME280;18147;51.952;6.146;2022-07-22T02:14:52;102055.63;;;15.67;100.00
31538;BME280;18147;51.952;6.146;2022-07-22T02:17:17;102050.69;;;15.74;100.00
31538;BME280;18147;51.952;6.146;2022-07-22T02:19:43;102050.28;;;15.80;100.00
31538;BME280;18147;51.952;6.146;2022-07-22T02:22:11;102056.78;;;15.63;100.00
31538;BME280;18147;51.952;6.146;2022-07-22T02:24:36;102055.94;;;15.75;100.00
31538;BME280;18147;51.952;6.146;2022-07-22T02:27:02;102055.88;;;15.63;100.00
31538;BME280;18147;51.952;6.146;2022-07-22T02:29:29;102062.31;;;15.74;100.00
31538;BME280;18147;51.952;6.146;2022-07-22T02:31:55;102058.94;;;15.71;100.00
31538;BME280;18147;51.952;6.146;2022-07-22T02:34:21;102053.19;;;15.77;100.00
31538;BME280;18147;51.952;6.146;2022-07-22T02:36:46;102046.53;;;15.83;100.00
31538;BME280;18147;51.952;6.146;2022-07-22T02:39:12;102048.84;;;15.74;100.00
31538;BME280;18147;51.952;6.146;2022-07-22T02:41:39;102049.94;;;15.72;100.00
31538;BME280;18147;51.952;6.146;2022-07-22T02:44:05;102047.13;;;15.73;100.00
31538;BME280;18147;51.952;6.146;2022-07-22T02:46:30;102052.66;;;15.85;100.00
31538;BME280;18147;51.952;6.146;2022-07-22T02:49:04;102045.56;;;15.84;100.00
31538;BME280;18147;51.952;6.146;2022-07-22T02:51:30;102040.19;;;15.84;100.00
31538;BME280;18147;51.952;6.146;2022-07-22T02:53:56;102048.13;;;15.85;100.00
31538;BME280;18147;51.952;6.146;2022-07-22T02:56:22;102044.41;;;15.88;100.00
31538;BME280;18147;51.952;6.146;2022-07-22T02:58:47;102051.88;;;15.97;100.00
31538;BME280;18147;51.952;6.146;2022-07-22T03:01:17;102041.19;;;15.95;100.00
31538;BME280;18147;51.952;6.146;2022-07-22T03:03:50;102045.16;;;15.90;100.00
31538;BME280;18147;51.952;6.146;2022-07-22T03:06:16;102039.56;;;15.93;100.00
31538;BME280;18147;51.952;6.146;2022-07-22T03:08:52;102045.50;;;15.98;100.00
31538;BME280;18147;51.952;6.146;2022-07-22T03:11:18;102049.56;;;15.91;100.00
31538;BME280;18147;51.952;6.146;2022-07-22T03:13:43;102053.03;;;15.93;100.00
31538;BME280;18147;51.952;6.146;2022-07-22T03:16:09;102060.88;;;15.96;100.00
31538;BME280;18147;51.952;6.146;2022-07-22T03:18:36;102064.75;;;15.92;100.00
31538;BME280;18147;51.952;6.146;2022-07-22T03:21:01;102063.66;;;15.82;100.00
31538;BME280;18147;51.952;6.146;2022-07-22T03:23:27;102062.44;;;15.86;100.00
31538;BME280;18147;51.952;6.146;2022-07-22T03:25:52;102055.06;;;15.89;100.00
31538;BME280;18147;51.952;6.146;2022-07-22T03:28:18;102049.25;;;15.95;100.00
31538;BME280;18147;51.952;6.146;2022-07-22T03:30:43;102053.88;;;15.93;100.00
31538;BME280;18147;51.952;6.146;2022-07-22T03:33:09;102055.31;;;15.99;100.00
31538;BME280;18147;51.952;6.146;2022-07-22T03:35:39;102043.50;;;16.01;100.00
31538;BME280;18147;51.952;6.146;2022-07-22T03:38:05;102055.41;;;15.97;100.00
31538;BME280;18147;51.952;6.146;2022-07-22T03:40:30;102051.19;;;15.93;100.00
31538;BME280;18147;51.952;6.146;2022-07-22T03:42:57;102050.97;;;15.96;100.00
31538;BME280;18147;51.952;6.146;2022-07-22T03:45:23;102055.50;;;15.96;100.00
31538;BME280;18147;51.952;6.146;2022-07-22T03:47:48;102059.53;;;16.03;100.00
31538;BME280;18147;51.952;6.146;2022-07-22T03:50:15;102057.03;;;16.00;100.00
31538;BME280;18147;51.952;6.146;2022-07-22T03:52:41;102058.56;;;16.04;100.00
31538;BME280;18147;51.952;6.146;2022-07-22T03:55:09;102060.69;;;15.99;100.00
31538;BME280;18147;51.952;6.146;2022-07-22T03:57:35;102060.50;;;16.02;100.00
31538;BME280;18147;51.952;6.146;2022-07-22T04:00:10;102060.06;;;16.08;100.00
31538;BME280;18147;51.952;6.146;2022-07-22T04:02:43;102058.84;;;15.99;100.00
31538;BME280;18147;51.952;6.146;2022-07-22T04:05:14;102054.47;;;16.11;100.00
31538;BME280;18147;51.952;6.146;2022-07-22T04:07:40;102057.28;;;16.10;100.00
31538;BME280;18147;51.952;6.146;2022-07-22T04:10:06;102045.47;;;16.12;100.00
31538;BME280;18147;51.952;6.146;2022-07-22T04:12:37;102047.84;;;16.17;100.00
31538;BME280;18147;51.952;6.146;2022-07-22T04:15:17;102045.22;;;16.15;100.00
31538;BME280;18147;51.952;6.146;2022-07-22T04:17:43;102045.59;;;16.23;100.00
31538;BME280;18147;51.952;6.146;2022-07-22T04:20:09;102045.16;;;16.29;100.00
31538;BME280;18147;51.952;6.146;2022-07-22T04:22:54;102050.19;;;16.21;100.00
31538;BME280;18147;51.952;6.146;2022-07-22T04:25:20;102052.78;;;16.23;100.00
31538;BME280;18147;51.952;6.146;2022-07-22T04:27:45;102049.19;;;16.10;100.00
31538;BME280;18147;51.952;6.146;2022-07-22T04:30:11;102051.22;;;16.06;100.00
31538;BME280;18147;51.952;6.146;2022-07-22T04:32:38;102044.22;;;16.03;100.00
31538;BME280;18147;51.952;6.146;2022-07-22T04:35:04;102045.47;;;16.25;100.00
31538;BME280;18147;51.952;6.146;2022-07-22T04:37:30;102044.19;;;16.18;100.00
31538;BME280;18147;51.952;6.146;2022-07-22T04:39:57;102046.00;;;16.17;100.00
31538;BME280;18147;51.952;6.146;2022-07-22T04:42:22;102036.66;;;16.23;100.00
31538;BME280;18147;51.952;6.146;2022-07-22T04:44:49;102042.81;;;16.38;100.00
31538;BME280;18147;51.952;6.146;2022-07-22T04:47:15;102037.75;;;16.33;100.00
31538;BME280;18147;51.952;6.146;2022-07-22T04:49:41;102042.28;;;16.33;100.00
31538;BME280;18147;51.952;6.146;2022-07-22T04:52:08;102038.59;;;16.46;100.00
31538;BME280;18147;51.952;6.146;2022-07-22T04:54:40;102041.72;;;16.27;100.00
31538;BME280;18147;51.952;6.146;2022-07-22T04:57:06;102037.75;;;16.33;100.00
31538;BME280;18147;51.952;6.146;2022-07-22T04:59:32;102037.09;;;16.29;100.00
31538;BME280;18147;51.952;6.146;2022-07-22T05:01:57;102041.84;;;16.39;100.00
31538;BME280;18147;51.952;6.146;2022-07-22T05:04:23;102035.38;;;16.41;100.00
31538;BME280;18147;51.952;6.146;2022-07-22T05:06:50;102041.84;;;16.51;100.00
31538;BME280;18147;51.952;6.146;2022-07-22T05:09:16;102037.78;;;16.58;100.00
31538;BME280;18147;51.952;6.146;2022-07-22T05:11:41;102042.53;;;16.68;100.00
31538;BME280;18147;51.952;6.146;2022-07-22T05:14:07;102040.09;;;16.77;100.00
31538;BME280;18147;51.952;6.146;2022-07-22T05:16:35;102035.44;;;16.79;100.00
31538;BME280;18147;51.952;6.146;2022-07-22T05:19:03;102039.41;;;16.87;100.00
31538;BME280;18147;51.952;6.146;2022-07-22T05:21:32;102037.47;;;16.89;100.00
31538;BME280;18147;51.952;6.146;2022-07-22T05:23:58;102038.34;;;16.89;100.00
31538;BME280;18147;51.952;6.146;2022-07-22T05:26:24;102033.66;;;16.66;100.00
31538;BME280;18147;51.952;6.146;2022-07-22T05:28:50;102036.91;;;16.71;100.00
31538;BME280;18147;51.952;6.146;2022-07-22T05:31:15;102039.09;;;16.78;100.00
31538;BME280;18147;51.952;6.146;2022-07-22T05:33:41;102043.28;;;16.57;100.00
31538;BME280;18147;51.952;6.146;2022-07-22T05:36:27;102044.50;;;16.78;100.00
31538;BME280;18147;51.952;6.146;2022-07-22T05:38:54;102038.00;;;16.81;100.00
31538;BME280;18147;51.952;6.146;2022-07-22T05:41:20;102047.06;;;16.80;100.00
31538;BME280;18147;51.952;6.146;2022-07-22T05:43:45;102042.34;;;16.83;100.00
31538;BME280;18147;51.952;6.146;2022-07-22T05:46:11;102046.75;;;16.72;100.00
31538;BME280;18147;51.952;6.146;2022-07-22T05:48:36;102047.69;;;16.96;100.00
31538;BME280;18147;51.952;6.146;2022-07-22T05:51:02;102055.06;;;17.07;100.00
31538;BME280;18147;51.952;6.146;2022-07-22T05:53:30;102052.56;;;17.04;100.00
31538;BME280;18147;51.952;6.146;2022-07-22T05:55:55;102053.94;;;17.22;100.00
31538;BME280;18147;51.952;6.146;2022-07-22T05:58:22;102058.16;;;17.14;100.00
31538;BME280;18147;51.952;6.146;2022-07-22T06:00:47;102046.53;;;17.13;100.00
31538;BME280;18147;51.952;6.146;2022-07-22T06:03:14;102050.56;;;17.31;100.00
31538;BME280;18147;51.952;6.146;2022-07-22T06:05:39;102056.44;;;17.13;100.00
31538;BME280;18147;51.952;6.146;2022-07-22T06:08:08;102052.97;;;17.11;100.00
31538;BME280;18147;51.952;6.146;2022-07-22T06:10:52;102054.16;;;17.32;100.00
31538;BME280;18147;51.952;6.146;2022-07-22T06:13:19;102054.41;;;17.53;100.00
31538;BME280;18147;51.952;6.146;2022-07-22T06:15:44;102049.41;;;17.59;100.00
31538;BME280;18147;51.952;6.146;2022-07-22T06:18:11;102053.75;;;17.49;100.00
31538;BME280;18147;51.952;6.146;2022-07-22T06:20:36;102051.91;;;17.63;100.00
31538;BME280;18147;51.952;6.146;2022-07-22T06:23:02;102057.25;;;17.39;100.00
31538;BME280;18147;51.952;6.146;2022-07-22T06:25:29;102055.66;;;17.60;100.00
31538;BME280;18147;51.952;6.146;2022-07-22T06:27:54;102052.75;;;17.63;100.00
31538;BME280;18147;51.952;6.146;2022-07-22T06:30:20;102056.53;;;17.73;100.00
31538;BME280;18147;51.952;6.146;2022-07-22T06:32:51;102060.34;;;17.45;100.00
31538;BME280;18147;51.952;6.146;2022-07-22T06:35:17;102064.28;;;17.78;100.00
31538;BME280;18147;51.952;6.146;2022-07-22T06:37:43;102057.06;;;17.66;100.00
31538;BME280;18147;51.952;6.146;2022-07-22T06:40:10;102051.06;;;17.86;100.00
31538;BME280;18147;51.952;6.146;2022-07-22T06:42:58;102047.97;;;18.27;100.00
31538;BME280;18147;51.952;6.146;2022-07-22T06:45:31;102046.72;;;18.31;100.00
31538;BME280;18147;51.952;6.146;2022-07-22T06:48:10;102056.25;;;18.48;100.00
31538;BME280;18147;51.952;6.146;2022-07-22T06:50:35;102049.25;;;18.57;100.00
31538;BME280;18147;51.952;6.146;2022-07-22T06:53:06;102051.72;;;18.60;100.00
31538;BME280;18147;51.952;6.146;2022-07-22T06:55:32;102049.97;;;18.48;100.00
31538;BME280;18147;51.952;6.146;2022-07-22T06:58:08;102054.91;;;18.65;100.00
31538;BME280;18147;51.952;6.146;2022-07-22T07:00:33;102043.19;;;18.88;95.93
31538;BME280;18147;51.952;6.146;2022-07-22T07:03:31;102046.03;;;18.98;99.17
31538;BME280;18147;51.952;6.146;2022-07-22T07:05:59;102047.16;;;18.60;96.46
31538;BME280;18147;51.952;6.146;2022-07-22T07:08:30;102050.25;;;18.67;97.42
31538;BME280;18147;51.952;6.146;2022-07-22T07:10:55;102035.44;;;18.84;98.47
31538;BME280;18147;51.952;6.146;2022-07-22T07:13:21;102040.97;;;19.38;91.90
31538;BME280;18147;51.952;6.146;2022-07-22T07:15:46;102045.75;;;19.46;89.96
31538;BME280;18147;51.952;6.146;2022-07-22T07:18:13;102038.38;;;19.59;86.19
31538;BME280;18147;51.952;6.146;2022-07-22T07:20:39;102036.28;;;19.63;89.51
31538;BME280;18147;51.952;6.146;2022-07-22T07:23:06;102032.59;;;19.96;84.25
31538;BME280;18147;51.952;6.146;2022-07-22T07:25:35;102040.53;;;19.77;86.38
31538;BME280;18147;51.952;6.146;2022-07-22T07:28:01;102030.56;;;19.77;91.60
31538;BME280;18147;51.952;6.146;2022-07-22T07:30:46;102040.16;;;19.81;87.35
31538;BME280;18147;51.952;6.146;2022-07-22T07:33:12;102029.19;;;20.15;80.75
31538;BME280;18147;51.952;6.146;2022-07-22T07:35:38;102043.97;;;20.11;90.30
31538;BME280;18147;51.952;6.146;2022-07-22T07:38:04;102039.81;;;20.07;89.95
31538;BME280;18147;51.952;6.146;2022-07-22T07:40:30;102026.50;;;20.15;83.79
31538;BME280;18147;51.952;6.146;2022-07-22T07:42:56;102035.59;;;19.93;86.94
31538;BME280;18147;51.952;6.146;2022-07-22T07:45:22;102032.69;;;20.06;81.24
31538;BME280;18147;51.952;6.146;2022-07-22T07:47:47;102024.19;;;20.31;87.25
31538;BME280;18147;51.952;6.146;2022-07-22T07:50:13;102038.09;;;19.62;82.82
31538;BME280;18147;51.952;6.146;2022-07-22T07:52:44;102033.38;;;20.19;79.97
31538;BME280;18147;51.952;6.146;2022-07-22T07:55:13;102042.03;;;19.70;83.77
31538;BME280;18147;51.952;6.146;2022-07-22T07:57:40;102043.19;;;19.88;83.76
31538;BME280;18147;51.952;6.146;2022-07-22T08:00:11;102041.56;;;19.97;86.70
31538;BME280;18147;51.952;6.146;2022-07-22T08:02:39;102044.84;;;20.11;78.42
31538;BME280;18147;51.952;6.146;2022-07-22T08:05:06;102052.31;;;19.98;81.82
31538;BME280;18147;51.952;6.146;2022-07-22T08:07:32;102046.72;;;20.32;84.78
31538;BME280;18147;51.952;6.146;2022-07-22T08:09:58;102040.25;;;20.23;85.66
31538;BME280;18147;51.952;6.146;2022-07-22T08:12:41;102046.66;;;19.90;81.30
31538;BME280;18147;51.952;6.146;2022-07-22T08:15:26;102039.72;;;20.29;78.88
31538;BME280;18147;51.952;6.146;2022-07-22T08:17:52;102037.31;;;20.15;81.01
31538;BME280;18147;51.952;6.146;2022-07-22T08:20:18;102041.19;;;20.33;78.74
31538;BME280;18147;51.952;6.146;2022-07-22T08:22:44;102041.28;;;20.11;80.36
31538;BME280;18147;51.952;6.146;2022-07-22T08:25:10;102050.00;;;19.82;80.50
31538;BME280;18147;51.952;6.146;2022-07-22T08:27:36;102049.31;;;20.01;79.45
31538;BME280;18147;51.952;6.146;2022-07-22T08:30:04;102051.03;;;19.59;82.82
31538;BME280;18147;51.952;6.146;2022-07-22T08:32:33;102050.44;;;19.44;81.42
31538;BME280;18147;51.952;6.146;2022-07-22T08:35:01;102054.97;;;19.66;83.62
31538;BME280;18147;51.952;6.146;2022-07-22T08:37:27;102052.97;;;19.79;83.08
31538;BME280;18147;51.952;6.146;2022-07-22T08:39:52;102052.69;;;19.82;87.14
31538;BME280;18147;51.952;6.146;2022-07-22T08:42:22;102049.03;;;19.72;80.29
31538;BME280;18147;51.952;6.146;2022-07-22T08:44:48;102045.13;;;19.97;82.14
31538;BME280;18147;51.952;6.146;2022-07-22T08:47:14;102044.09;;;19.88;82.00
31538;BME280;18147;51.952;6.146;2022-07-22T08:50:03;102041.53;;;20.08;82.08
31538;BME280;18147;51.952;6.146;2022-07-22T08:52:38;102035.66;;;20.56;79.45
31538;BME280;18147;51.952;6.146;2022-07-22T08:55:05;102038.53;;;20.85;77.65
31538;BME280;18147;51.952;6.146;2022-07-22T08:57:31;102025.59;;;20.98;76.47
31538;BME280;18147;51.952;6.146;2022-07-22T08:59:57;102028.34;;;20.77;80.42
31538;BME280;18147;51.952;6.146;2022-07-22T09:02:24;102017.94;;;21.13;78.38
31538;BME280;18147;51.952;6.146;2022-07-22T09:04:58;102025.97;;;21.55;72.99
31538;BME280;18147;51.952;6.146;2022-07-22T09:07:29;102028.25;;;21.50;74.03
31538;BME280;18147;51.952;6.146;2022-07-22T09:10:01;102033.56;;;21.20;75.88
31538;BME280;18147;51.952;6.146;2022-07-22T09:13:03;102027.69;;;21.56;73.85
31538;BME280;18147;51.952;6.146;2022-07-22T09:15:50;102033.72;;;22.56;68.80
31538;BME280;18147;51.952;6.146;2022-07-22T09:18:53;102036.47;;;22.17;69.09
31538;BME280;18147;51.952;6.146;2022-07-22T09:21:42;102032.00;;;21.97;68.11
31538;BME280;18147;51.952;6.146;2022-07-22T09:24:30;102029.72;;;21.92;67.54
31538;BME280;18147;51.952;6.146;2022-07-22T09:27:24;102027.31;;;21.80;67.00
31538;BME280;18147;51.952;6.146;2022-07-22T09:30:16;102025.13;;;23.08;65.52
31538;BME280;18147;51.952;6.146;2022-07-22T09:32:51;102022.19;;;22.82;71.05
31538;BME280;18147;51.952;6.146;2022-07-22T09:35:44;102021.56;;;22.02;69.47
31538;BME280;18147;51.952;6.146;2022-07-22T09:38:12;102017.06;;;21.03;70.67
31538;BME280;18147;51.952;6.146;2022-07-22T09:40:43;102004.69;;;22.37;65.92
31538;BME280;18147;51.952;6.146;2022-07-22T09:43:11;102017.41;;;21.79;65.08
31538;BME280;18147;51.952;6.146;2022-07-22T09:45:45;102012.34;;;22.71;62.88
31538;BME280;18147;51.952;6.146;2022-07-22T09:48:11;102021.69;;;22.49;67.13
31538;BME280;18147;51.952;6.146;2022-07-22T09:50:51;102022.88;;;22.93;60.50
31538;BME280;18147;51.952;6.146;2022-07-22T09:53:40;102011.72;;;22.96;60.34
31538;BME280;18147;51.952;6.146;2022-07-22T09:56:11;102015.91;;;22.25;66.22
31538;BME280;18147;51.952;6.146;2022-07-22T09:58:38;102011.19;;;21.38;65.87
31538;BME280;18147;51.952;6.146;2022-07-22T10:01:11;102010.53;;;21.55;64.55
31538;BME280;18147;51.952;6.146;2022-07-22T10:03:40;102008.19;;;22.20;68.04
31538;BME280;18147;51.952;6.146;2022-07-22T10:06:08;102006.19;;;23.16;61.48
31538;BME280;18147;51.952;6.146;2022-07-22T10:08:36;102010.75;;;22.21;64.11
31538;BME280;18147;51.952;6.146;2022-07-22T10:11:05;102010.97;;;22.47;65.39
31538;BME280;18147;51.952;6.146;2022-07-22T10:13:31;102007.72;;;21.76;65.92
31538;BME280;18147;51.952;6.146;2022-07-22T10:15:58;102006.22;;;21.53;64.10
31538;BME280;18147;51.952;6.146;2022-07-22T10:18:28;102005.53;;;22.47;62.85
31538;BME280;18147;51.952;6.146;2022-07-22T10:21:04;101999.00;;;22.40;60.58
31538;BME280;18147;51.952;6.146;2022-07-22T10:23:30;101995.28;;;22.03;62.87
31538;BME280;18147;51.952;6.146;2022-07-22T10:25:58;101998.56;;;22.45;65.23
31538;BME280;18147;51.952;6.146;2022-07-22T10:28:27;101994.22;;;22.99;65.86
31538;BME280;18147;51.952;6.146;2022-07-22T10:33:39;101997.59;;;22.17;62.36
31538;BME280;18147;51.952;6.146;2022-07-22T10:36:04;101995.78;;;22.64;60.19
31538;BME280;18147;51.952;6.146;2022-07-22T10:38:31;101992.69;;;22.96;59.77
31538;BME280;18147;51.952;6.146;2022-07-22T10:41:02;101991.44;;;23.99;57.35
31538;BME280;18147;51.952;6.146;2022-07-22T10:43:30;101993.88;;;24.02;56.55
31538;BME280;18147;51.952;6.146;2022-07-22T10:45:58;102000.13;;;23.49;60.17
31538;BME280;18147;51.952;6.146;2022-07-22T10:48:43;101990.47;;;23.65;58.91
31538;BME280;18147;51.952;6.146;2022-07-22T10:51:14;101998.22;;;23.77;62.83
31538;BME280;18147;51.952;6.146;2022-07-22T10:58:52;101986.56;;;24.29;59.82
31538;BME280;18147;51.952;6.146;2022-07-22T11:01:20;102005.38;;;23.33;59.56
31538;BME280;18147;51.952;6.146;2022-07-22T11:03:48;101986.84;;;24.36;56.04
31538;BME280;18147;51.952;6.146;2022-07-22T11:06:28;101983.38;;;24.34;53.14
31538;BME280;18147;51.952;6.146;2022-07-22T11:09:00;101999.34;;;23.12;57.61
31538;BME280;18147;51.952;6.146;2022-07-22T11:13:59;101989.72;;;23.98;58.97
31538;BME280;18147;51.952;6.146;2022-07-22T11:16:26;101986.63;;;23.93;55.58
31538;BME280;18147;51.952;6.146;2022-07-22T11:18:59;101990.09;;;24.39;55.62
31538;BME280;18147;51.952;6.146;2022-07-22T11:21:27;101971.53;;;24.43;52.57
31538;BME280;18147;51.952;6.146;2022-07-22T11:23:55;101975.34;;;24.50;54.23
31538;BME280;18147;51.952;6.146;2022-07-22T11:26:41;101965.28;;;24.07;53.22
31538;BME280;18147;51.952;6.146;2022-07-22T11:29:08;101976.56;;;23.94;54.06
31538;BME280;18147;51.952;6.146;2022-07-22T11:31:35;101978.66;;;24.36;56.24
31538;BME280;18147;51.952;6.146;2022-07-22T11:34:06;101963.22;;;24.26;54.81
31538;BME280;18147;51.952;6.146;2022-07-22T11:36:34;101964.31;;;24.60;51.64
31538;BME280;18147;51.952;6.146;2022-07-22T11:39:00;101960.63;;;24.43;57.83
31538;BME280;18147;51.952;6.146;2022-07-22T11:41:28;101966.91;;;23.99;53.10
31538;BME280;18147;51.952;6.146;2022-07-22T11:43:54;101966.22;;;23.80;52.18
31538;BME280;18147;51.952;6.146;2022-07-22T11:46:23;101960.91;;;24.14;52.02
31538;BME280;18147;51.952;6.146;2022-07-22T11:48:52;101956.41;;;24.48;53.58
31538;BME280;18147;51.952;6.146;2022-07-22T11:51:17;101963.25;;;24.09;52.41
31538;BME280;18147;51.952;6.146;2022-07-22T11:53:43;101961.53;;;24.08;52.56
31538;BME280;18147;51.952;6.146;2022-07-22T11:56:10;101964.75;;;23.67;56.17
31538;BME280;18147;51.952;6.146;2022-07-22T11:58:44;101953.31;;;23.82;56.97
31538;BME280;18147;51.952;6.146;2022-07-22T12:01:16;101955.78;;;23.57;55.67
31538;BME280;18147;51.952;6.146;2022-07-22T12:03:45;101962.44;;;23.27;55.25
31538;BME280;18147;51.952;6.146;2022-07-22T12:06:13;101955.53;;;23.33;54.55
31538;BME280;18147;51.952;6.146;2022-07-22T12:08:45;101956.06;;;23.82;52.60
31538;BME280;18147;51.952;6.146;2022-07-22T12:11:12;101943.03;;;23.93;53.14
31538;BME280;18147;51.952;6.146;2022-07-22T12:13:43;101934.41;;;24.24;53.77
31538;BME280;18147;51.952;6.146;2022-07-22T12:18:44;101931.75;;;24.92;50.26
31538;BME280;18147;51.952;6.146;2022-07-22T12:21:15;101929.94;;;25.09;51.88
31538;BME280;18147;51.952;6.146;2022-07-22T12:23:49;101924.59;;;25.74;51.23
31538;BME280;18147;51.952;6.146;2022-07-22T12:26:15;101917.41;;;25.41;50.31
31538;BME280;18147;51.952;6.146;2022-07-22T12:28:41;101903.59;;;25.67;52.89
31538;BME280;18147;51.952;6.146;2022-07-22T12:31:07;101908.47;;;25.14;51.68
31538;BME280;18147;51.952;6.146;2022-07-22T12:33:32;101903.56;;;25.34;50.51
31538;BME280;18147;51.952;6.146;2022-07-22T12:38:27;101901.69;;;25.35;47.66
31538;BME280;18147;51.952;6.146;2022-07-22T12:40:53;101907.97;;;25.19;51.13
31538;BME280;18147;51.952;6.146;2022-07-22T12:43:24;101907.56;;;24.63;51.23
31538;BME280;18147;51.952;6.146;2022-07-22T12:45:49;101902.34;;;23.56;55.06
31538;BME280;18147;51.952;6.146;2022-07-22T12:48:15;101898.13;;;23.80;58.21
31538;BME280;18147;51.952;6.146;2022-07-22T12:50:42;101905.97;;;23.29;53.77
31538;BME280;18147;51.952;6.146;2022-07-22T12:53:12;101899.22;;;23.33;54.98
31538;BME280;18147;51.952;6.146;2022-07-22T12:55:52;101894.81;;;23.68;52.92
31538;BME280;18147;51.952;6.146;2022-07-22T12:58:20;101900.47;;;23.74;51.83
31538;BME280;18147;51.952;6.146;2022-07-22T13:00:48;101895.06;;;24.87;51.72
31538;BME280;18147;51.952;6.146;2022-07-22T13:03:14;101890.38;;;25.13;50.33
31538;BME280;18147;51.952;6.146;2022-07-22T13:05:39;101899.19;;;24.57;54.53
31538;BME280;18147;51.952;6.146;2022-07-22T13:08:06;101886.50;;;24.82;50.08